createdAt,value
2023-02-22T00:02:10.796Z,99.90
2023-02-22T00:04:39.968Z,99.90
2023-02-22T00:07:07.239Z,99.90
2023-02-22T00:09:34.342Z,99.90
2023-02-22T00:12:03.919Z,99.90
2023-02-22T00:14:30.911Z,99.90
2023-02-22T00:16:59.786Z,99.90
2023-02-22T00:19:28.173Z,99.90
2023-02-22T00:21:55.348Z,99.90
2023-02-22T00:24:25.016Z,99.90
2023-02-22T00:26:56.013Z,99.90
2023-02-22T00:29:25.102Z,99.90
2023-02-22T00:31:52.414Z,99.90
2023-02-22T00:34:19.430Z,99.90
2023-02-22T00:36:49.748Z,99.90
2023-02-22T00:39:16.946Z,99.90
2023-02-22T00:41:45.325Z,99.90
2023-02-22T00:44:15.075Z,99.90
2023-02-22T00:46:42.062Z,99.90
2023-02-22T00:49:09.019Z,99.90
2023-02-22T00:51:37.599Z,99.90
2023-02-22T00:54:05.413Z,99.90
2023-02-22T00:56:34.418Z,99.90
2023-02-22T00:59:01.744Z,99.90
2023-02-22T01:01:29.817Z,99.90
2023-02-22T01:03:56.822Z,99.90
2023-02-22T01:06:23.971Z,99.90
2023-02-22T01:08:51.494Z,99.90
2023-02-22T01:11:18.770Z,99.90
2023-02-22T01:13:46.473Z,99.90
2023-02-22T01:16:14.029Z,99.90
2023-02-22T01:18:44.086Z,99.90
2023-02-22T01:21:11.154Z,99.90
2023-02-22T01:27:51.443Z,99.90
2023-02-22T01:30:25.173Z,99.90
2023-02-22T01:32:54.199Z,99.90
2023-02-22T01:35:24.619Z,99.90
2023-02-22T01:37:51.646Z,99.90
2023-02-22T01:40:39.602Z,99.90
2023-02-22T01:43:18.172Z,99.90
2023-02-22T01:45:55.995Z,99.90
2023-02-22T01:48:32.955Z,99.90
2023-02-22T01:51:18.933Z,99.90
2023-02-22T01:53:54.795Z,99.90
2023-02-22T01:56:25.275Z,99.90
2023-02-22T01:59:02.480Z,99.90
2023-02-22T02:01:30.709Z,99.90
2023-02-22T02:04:03.425Z,99.90
2023-02-22T02:06:33.858Z,99.90
2023-02-22T02:09:18.124Z,99.90
2023-02-22T02:11:46.111Z,99.90
2023-02-22T02:14:13.808Z,99.90
2023-02-22T02:16:46.347Z,99.90
2023-02-22T02:19:23.623Z,99.90
2023-02-22T02:22:19.846Z,99.90
2023-02-22T02:25:06.661Z,99.90
2023-02-22T02:27:52.362Z,99.90
2023-02-22T02:30:46.220Z,99.90
2023-02-22T02:33:37.774Z,99.90
2023-02-22T02:36:10.093Z,99.90
2023-02-22T02:38:55.858Z,99.90
2023-02-22T02:41:34.299Z,99.90
2023-02-22T02:44:27.822Z,99.90
2023-02-22T02:47:09.381Z,99.90
2023-02-22T02:50:03.020Z,99.90
2023-02-22T02:52:35.988Z,99.90
2023-02-22T02:55:05.075Z,99.90
2023-02-22T02:57:32.548Z,99.90
2023-02-22T03:00:00.095Z,99.90
2023-02-22T03:02:39.444Z,99.90
2023-02-22T03:05:43.976Z,99.90
2023-02-22T03:08:24.808Z,99.90
2023-02-22T03:11:16.245Z,99.90
2023-02-22T03:14:02.349Z,99.90
2023-02-22T03:16:54.321Z,99.90
2023-02-22T03:19:35.868Z,99.90
2023-02-22T03:22:20.863Z,99.90
2023-02-22T03:25:14.930Z,99.90
2023-02-22T03:27:53.375Z,99.90
2023-02-22T03:30:31.756Z,99.90
2023-02-22T03:33:09.213Z,99.90
2023-02-22T03:35:48.421Z,99.90
2023-02-22T03:38:19.287Z,99.90
2023-02-22T03:40:54.501Z,99.90
2023-02-22T03:44:02.329Z,99.90
2023-02-22T03:46:31.609Z,99.90
2023-02-22T03:49:07.200Z,99.90
2023-02-22T03:51:37.489Z,99.90
2023-02-22T03:54:05.860Z,99.90
2023-02-22T03:56:52.284Z,99.90
2023-02-22T03:59:27.344Z,99.90
2023-02-22T04:01:56.895Z,99.90
2023-02-22T04:04:25.438Z,99.90
2023-02-22T04:06:52.862Z,99.90
2023-02-22T04:09:20.994Z,99.90
2023-02-22T04:11:48.700Z,99.90
2023-02-22T04:14:16.456Z,99.90
2023-02-22T04:16:43.448Z,99.90
2023-02-22T04:19:10.716Z,99.90
2023-02-22T04:21:38.891Z,99.90
2023-02-22T04:24:10.152Z,99.90
2023-02-22T04:26:37.558Z,99.90
2023-02-22T04:29:06.775Z,99.90
2023-02-22T04:31:38.368Z,99.90
2023-02-22T04:34:06.997Z,99.90
2023-02-22T04:36:38.251Z,99.90
2023-02-22T04:39:05.461Z,99.90
2023-02-22T04:41:34.557Z,99.90
2023-02-22T04:44:01.952Z,99.90
2023-02-22T04:46:30.242Z,99.90
2023-02-22T04:48:58.983Z,99.90
2023-02-22T04:51:28.768Z,99.90
2023-02-22T04:54:05.514Z,99.90
2023-02-22T04:56:34.789Z,99.90
2023-02-22T04:59:01.891Z,99.90
2023-02-22T05:01:34.414Z,99.90
2023-02-22T05:04:07.541Z,99.90
2023-02-22T05:06:35.778Z,99.90
2023-02-22T05:09:02.852Z,99.90
2023-02-22T05:11:30.080Z,99.90
2023-02-22T05:13:57.055Z,99.90
2023-02-22T05:16:24.568Z,99.90
2023-02-22T05:18:51.707Z,99.90
2023-02-22T05:21:18.892Z,99.90
2023-02-22T05:23:46.246Z,99.90
2023-02-22T05:26:14.284Z,99.90
2023-02-22T05:28:41.304Z,99.90
2023-02-22T05:31:10.689Z,99.90
2023-02-22T05:33:39.720Z,99.90
2023-02-22T05:36:07.843Z,99.90
2023-02-22T05:38:34.923Z,99.90
2023-02-22T05:41:02.289Z,99.90
2023-02-22T05:43:29.209Z,99.90
2023-02-22T05:45:56.196Z,99.90
2023-02-22T05:48:23.147Z,99.90
2023-02-22T05:50:50.199Z,99.90
2023-02-22T05:53:17.606Z,99.90
2023-02-22T05:55:46.614Z,99.90
2023-02-22T05:58:13.654Z,99.90
2023-02-22T06:00:42.553Z,99.90
2023-02-22T06:03:12.995Z,99.90
2023-02-22T06:05:41.954Z,99.90
2023-02-22T06:08:09.847Z,99.90
2023-02-22T06:10:40.535Z,99.90
2023-02-22T06:13:07.925Z,99.90
2023-02-22T06:15:34.925Z,99.90
2023-02-22T06:18:03.435Z,99.90
2023-02-22T06:20:30.893Z,99.90
2023-02-22T06:23:01.807Z,99.90
2023-02-22T06:25:34.055Z,99.90
2023-02-22T06:28:01.670Z,99.90
2023-02-22T06:30:29.429Z,99.90
2023-02-22T06:32:57.286Z,99.90
2023-02-22T06:35:25.338Z,99.90
2023-02-22T06:37:52.339Z,99.90
2023-02-22T06:40:21.509Z,99.90
2023-02-22T06:42:49.522Z,99.90
2023-02-22T06:45:18.104Z,99.90
2023-02-22T06:47:45.333Z,99.90
2023-02-22T06:50:22.200Z,99.90
2023-02-22T06:52:49.408Z,99.90
2023-02-22T06:55:21.894Z,99.90
2023-02-22T06:57:48.867Z,99.90
2023-02-22T07:00:18.855Z,99.90
2023-02-22T07:02:46.807Z,99.90
2023-02-22T07:05:14.235Z,99.90
2023-02-22T07:07:41.350Z,99.90
2023-02-22T07:10:16.011Z,99.90
2023-02-22T07:12:43.247Z,99.90
2023-02-22T07:15:10.425Z,99.90
2023-02-22T07:17:37.383Z,99.90
2023-02-22T07:20:04.607Z,99.90
2023-02-22T07:22:31.513Z,99.90
2023-02-22T07:24:58.421Z,99.90
2023-02-22T07:27:25.676Z,99.90
2023-02-22T07:29:52.692Z,99.90
2023-02-22T07:32:19.700Z,99.90
2023-02-22T07:34:46.726Z,99.90
2023-02-22T07:37:13.790Z,99.90
2023-02-22T07:39:43.801Z,99.90
2023-02-22T07:42:10.868Z,99.90
2023-02-22T07:44:37.873Z,99.90
2023-02-22T07:47:05.134Z,99.90
2023-02-22T07:49:32.162Z,99.90
2023-02-22T07:52:00.660Z,99.90
2023-02-22T07:54:29.024Z,99.90
2023-02-22T07:56:56.215Z,99.90
2023-02-22T07:59:23.261Z,99.90
2023-02-22T08:01:50.836Z,99.90
2023-02-22T08:04:19.067Z,99.90
2023-02-22T08:06:47.572Z,99.90
2023-02-22T08:09:14.569Z,99.90
2023-02-22T08:11:41.801Z,99.90
2023-02-22T08:14:08.809Z,99.90
2023-02-22T08:16:36.438Z,99.90
2023-02-22T08:19:03.403Z,99.90
2023-02-22T08:21:30.454Z,99.90
2023-02-22T08:23:57.399Z,99.90
2023-02-22T08:26:25.532Z,99.90
2023-02-22T08:28:52.574Z,99.90
2023-02-22T08:31:20.915Z,99.90
2023-02-22T08:33:49.955Z,99.90
2023-02-22T08:36:18.638Z,99.90
2023-02-22T08:38:45.716Z,99.90
2023-02-22T08:41:13.998Z,99.90
2023-02-22T08:43:41.105Z,99.90
2023-02-22T08:46:08.591Z,99.90
2023-02-22T08:48:35.535Z,99.90
2023-02-22T08:51:02.554Z,99.90
2023-02-22T08:53:30.296Z,99.90
2023-02-22T08:55:57.364Z,99.90
2023-02-22T08:58:24.346Z,99.90
2023-02-22T09:00:51.509Z,99.90
2023-02-22T09:03:18.497Z,99.90
2023-02-22T09:05:45.924Z,99.90
2023-02-22T09:08:13.463Z,99.90
2023-02-22T09:10:40.835Z,99.90
2023-02-22T09:13:09.796Z,99.90
2023-02-22T09:15:39.751Z,99.90
2023-02-22T09:18:11.464Z,99.90
2023-02-22T09:20:38.590Z,99.90
2023-02-22T09:23:09.753Z,99.90
2023-02-22T09:25:39.034Z,99.90
2023-02-22T09:28:06.446Z,99.90
2023-02-22T09:30:35.217Z,99.90
2023-02-22T09:33:06.232Z,99.90
2023-02-22T09:35:36.660Z,99.90
2023-02-22T09:38:06.466Z,99.90
2023-02-22T09:40:41.020Z,99.90
2023-02-22T09:43:08.122Z,99.90
2023-02-22T09:45:59.742Z,99.90
2023-02-22T09:48:27.103Z,99.90
2023-02-22T09:50:59.612Z,99.90
2023-02-22T09:53:37.192Z,99.90
2023-02-22T09:56:11.068Z,99.90
2023-02-22T09:58:53.476Z,99.90
2023-02-22T10:01:27.083Z,99.90
2023-02-22T10:04:08.718Z,99.90
2023-02-22T10:06:37.309Z,99.90
2023-02-22T10:09:08.029Z,99.90
2023-02-22T10:11:37.864Z,99.90
2023-02-22T10:14:20.436Z,99.90
2023-02-22T10:16:59.618Z,99.90
2023-02-22T10:19:32.705Z,99.90
2023-02-22T10:22:30.703Z,99.90
2023-02-22T10:25:04.829Z,99.90
2023-02-22T10:27:36.845Z,99.90
2023-02-22T10:30:25.999Z,99.90
2023-02-22T10:33:18.956Z,99.90
2023-02-22T10:35:47.261Z,99.90
2023-02-22T10:38:23.547Z,99.90
2023-02-22T10:41:10.597Z,99.90
2023-02-22T10:43:39.230Z,99.90
2023-02-22T10:46:08.071Z,99.90
2023-02-22T10:48:41.157Z,99.90
2023-02-22T10:51:09.825Z,99.90
2023-02-22T10:53:38.659Z,99.90
2023-02-22T10:56:08.100Z,99.90
2023-02-22T10:58:56.025Z,99.90
2023-02-22T11:01:29.999Z,99.90
2023-02-22T11:04:04.662Z,99.90
2023-02-22T11:06:35.301Z,99.90
2023-02-22T11:09:10.459Z,99.90
2023-02-22T11:11:40.129Z,99.90
2023-02-22T11:14:10.759Z,99.90
2023-02-22T11:16:45.404Z,99.90
2023-02-22T11:19:25.728Z,99.90
2023-02-22T11:22:09.916Z,99.90
2023-02-22T11:24:50.922Z,99.90
2023-02-22T11:27:32.610Z,98.40
2023-02-22T11:30:21.166Z,99.90
2023-02-22T11:32:58.483Z,99.80
2023-02-22T11:35:25.504Z,99.00
2023-02-22T11:37:52.735Z,99.70
2023-02-22T11:40:23.220Z,99.50
2023-02-22T11:43:08.396Z,99.90
2023-02-22T11:45:35.635Z,99.90
2023-02-22T11:48:05.247Z,99.90
2023-02-22T11:50:41.797Z,98.10
2023-02-22T11:53:59.521Z,97.70
2023-02-22T11:56:48.243Z,97.30
2023-02-22T11:59:41.753Z,95.80
2023-02-22T12:02:31.326Z,96.20
2023-02-22T12:05:27.888Z,96.60
2023-02-22T12:08:44.712Z,96.80
2023-02-22T12:11:20.517Z,96.50
2023-02-22T12:14:25.792Z,95.90
2023-02-22T12:17:21.143Z,96.70
2023-02-22T12:19:52.405Z,97.00
2023-02-22T12:22:39.439Z,97.10
2023-02-22T12:25:16.046Z,96.40
2023-02-22T12:27:49.321Z,95.20
2023-02-22T12:30:30.759Z,95.10
2023-02-22T12:33:06.577Z,94.50
2023-02-22T12:35:37.364Z,93.90
2023-02-22T12:38:31.172Z,93.60
2023-02-22T12:41:18.955Z,93.90
2023-02-22T12:43:51.886Z,93.10
2023-02-22T12:46:29.666Z,92.50
2023-02-22T12:49:17.739Z,92.20
2023-02-22T12:52:20.911Z,92.70
2023-02-22T12:55:02.047Z,92.10
2023-02-22T12:57:51.804Z,91.40
2023-02-22T13:00:31.646Z,92.50
2023-02-22T13:03:37.462Z,92.10
2023-02-22T13:06:22.903Z,92.10
2023-02-22T13:09:07.773Z,91.60
2023-02-22T13:11:51.536Z,92.10
2023-02-22T13:14:27.550Z,91.60
2023-02-22T13:17:02.171Z,90.20
2023-02-22T13:19:44.299Z,90.50
2023-02-22T13:22:14.072Z,92.10
2023-02-22T13:25:04.733Z,89.50
2023-02-22T13:27:57.421Z,87.70
2023-02-22T13:31:03.839Z,88.70
2023-02-22T13:34:02.978Z,90.60
2023-02-22T13:36:43.385Z,92.00
2023-02-22T13:39:39.827Z,89.60
2023-02-22T13:42:14.853Z,87.30
2023-02-22T13:45:20.302Z,87.70
2023-02-22T13:47:53.224Z,90.70
2023-02-22T13:50:26.284Z,90.30
2023-02-22T13:52:56.217Z,90.00
2023-02-22T13:55:29.951Z,88.50
2023-02-22T13:58:15.499Z,88.40
2023-02-22T14:01:00.216Z,89.50
2023-02-22T14:03:36.453Z,91.30
2023-02-22T14:06:38.443Z,92.00
2023-02-22T14:09:19.099Z,93.10
2023-02-22T14:11:47.735Z,94.20
2023-02-22T14:14:18.045Z,94.40
2023-02-22T14:17:07.619Z,94.60
2023-02-22T14:19:34.681Z,94.10
2023-02-22T14:22:04.830Z,94.00
2023-02-22T14:24:44.268Z,94.50
2023-02-22T14:27:12.336Z,93.80
2023-02-22T14:29:53.902Z,94.10
2023-02-22T14:32:33.561Z,95.20
2023-02-22T14:35:26.425Z,95.00
2023-02-22T14:38:00.876Z,95.20
2023-02-22T14:40:33.891Z,95.10
2023-02-22T14:43:12.902Z,94.50
2023-02-22T14:45:55.063Z,94.40
2023-02-22T14:48:42.799Z,94.60
2023-02-22T14:51:21.775Z,94.00
2023-02-22T14:54:04.702Z,94.40
2023-02-22T14:56:41.311Z,94.10
2023-02-22T14:59:27.846Z,93.90
2023-02-22T15:02:12.416Z,94.30
2023-02-22T15:04:44.022Z,94.40
2023-02-22T15:07:27.472Z,94.40
2023-02-22T15:10:31.063Z,94.50
2023-02-22T15:13:09.404Z,94.00
2023-02-22T15:15:47.539Z,93.50
2023-02-22T15:18:23.829Z,91.60
2023-02-22T15:20:56.378Z,91.10
2023-02-22T15:23:49.127Z,91.50
2023-02-22T15:26:31.394Z,91.20
2023-02-22T15:29:00.067Z,91.20
2023-02-22T15:31:36.075Z,91.30
2023-02-22T15:34:16.112Z,92.80
2023-02-22T15:36:45.941Z,94.60
2023-02-22T15:39:43.999Z,95.50
2023-02-22T15:42:19.336Z,96.70
2023-02-22T15:44:49.634Z,97.00
2023-02-22T15:47:22.960Z,97.60
2023-02-22T15:50:26.474Z,98.10
2023-02-22T15:53:00.331Z,98.70
2023-02-22T15:55:44.054Z,99.10
2023-02-22T15:58:28.975Z,99.60
2023-02-22T16:01:09.135Z,99.90
2023-02-22T16:03:45.213Z,99.90
2023-02-22T16:06:37.895Z,99.90
2023-02-22T16:09:29.611Z,99.90
2023-02-22T16:12:24.367Z,99.90
2023-02-22T16:14:54.702Z,99.90
2023-02-22T16:17:26.598Z,99.90
2023-02-22T16:19:54.920Z,99.90
2023-02-22T16:22:31.307Z,99.90
2023-02-22T16:25:16.665Z,99.90
2023-02-22T16:27:57.691Z,99.90
2023-02-22T16:30:39.895Z,99.90
2023-02-22T16:33:14.179Z,99.90
2023-02-22T16:35:52.458Z,99.90
2023-02-22T16:38:21.632Z,99.90
2023-02-22T16:40:55.350Z,99.90
2023-02-22T16:43:31.790Z,99.90
2023-02-22T16:46:06.149Z,99.90
2023-02-22T16:48:34.293Z,99.90
2023-02-22T16:51:16.725Z,99.90
2023-02-22T16:53:45.064Z,99.90
2023-02-22T16:56:16.882Z,99.90
2023-02-22T16:58:46.709Z,99.90
2023-02-22T17:01:14.182Z,99.90
2023-02-22T17:03:42.716Z,99.90
2023-02-22T17:06:16.539Z,99.90
2023-02-22T17:08:44.831Z,99.90
2023-02-22T17:11:14.808Z,99.90
2023-02-22T17:13:42.753Z,99.90
2023-02-22T17:16:17.894Z,99.90
2023-02-22T17:18:46.118Z,99.90
2023-02-22T17:21:16.958Z,99.90
2023-02-22T17:23:46.186Z,99.90
2023-02-22T17:26:17.618Z,99.90
2023-02-22T17:28:45.582Z,99.90
2023-02-22T17:31:27.682Z,99.90
2023-02-22T17:34:02.556Z,99.90
2023-02-22T17:36:32.134Z,99.90
2023-02-22T17:39:00.415Z,99.90
2023-02-22T17:41:28.223Z,99.90
2023-02-22T17:43:58.497Z,99.90
2023-02-22T17:46:26.419Z,99.90
2023-02-22T17:48:57.885Z,99.90
2023-02-22T17:51:27.173Z,99.90
2023-02-22T17:53:56.079Z,99.90
2023-02-22T17:56:25.119Z,99.90
2023-02-22T17:58:54.946Z,99.90
2023-02-22T18:01:29.158Z,99.90
2023-02-22T18:04:01.406Z,99.90
2023-02-22T18:06:32.883Z,99.90
2023-02-22T18:09:01.316Z,99.90
2023-02-22T18:11:33.154Z,99.90
2023-02-22T18:14:02.666Z,99.90
2023-02-22T18:16:33.393Z,99.90
2023-02-22T18:19:01.734Z,99.90
2023-02-22T18:21:30.872Z,99.90
2023-02-22T18:23:59.162Z,99.90
2023-02-22T18:26:28.406Z,99.90
2023-02-22T18:28:56.944Z,99.90
2023-02-22T18:31:26.314Z,99.90
2023-02-22T18:33:54.451Z,99.90
2023-02-22T18:36:25.470Z,99.90
2023-02-22T18:38:58.572Z,99.90
2023-02-22T18:41:30.677Z,99.90
2023-02-22T18:44:00.919Z,99.90
2023-02-22T18:46:31.059Z,99.90
2023-02-22T18:49:00.477Z,99.90
2023-02-22T18:51:37.710Z,99.90
2023-02-22T18:54:06.037Z,99.90
2023-02-22T18:56:34.525Z,99.90
2023-02-22T18:59:04.781Z,99.90
2023-02-22T19:01:39.543Z,99.90
2023-02-22T19:04:13.172Z,99.90
2023-02-22T19:06:43.394Z,99.90
2023-02-22T19:09:11.810Z,99.90
2023-02-22T19:11:47.837Z,99.90
2023-02-22T19:14:17.396Z,99.90
2023-02-22T19:16:47.089Z,99.90
2023-02-22T19:19:23.569Z,99.90
2023-02-22T19:21:53.130Z,99.90
2023-02-22T19:24:24.792Z,99.90
2023-02-22T19:27:08.020Z,99.90
2023-02-22T19:29:40.490Z,99.90
2023-02-22T19:32:12.066Z,99.90
2023-02-22T19:34:40.452Z,99.90
2023-02-22T19:37:13.623Z,99.90
2023-02-22T19:39:42.467Z,99.90
2023-02-22T19:42:11.045Z,99.90
2023-02-22T19:44:40.487Z,99.90
2023-02-22T19:47:11.739Z,99.90
2023-02-22T19:49:41.760Z,99.90
2023-02-22T19:52:13.380Z,99.90
2023-02-22T19:54:44.563Z,99.90
2023-02-22T19:57:15.289Z,99.90
2023-02-22T19:59:45.557Z,99.90
2023-02-22T20:02:15.672Z,99.90
2023-02-22T20:04:47.121Z,99.90
2023-02-22T20:07:17.058Z,99.90
2023-02-22T20:09:45.046Z,99.90
2023-02-22T20:12:13.315Z,99.90
2023-02-22T20:14:41.009Z,99.90
2023-02-22T20:17:10.822Z,99.90
2023-02-22T20:19:41.985Z,99.90
2023-02-22T20:22:11.349Z,99.90
2023-02-22T20:24:42.461Z,99.90
2023-02-22T20:27:10.795Z,99.90
2023-02-22T20:29:40.154Z,99.90
2023-02-22T20:32:12.996Z,99.90
2023-02-22T20:34:45.628Z,99.90
2023-02-22T20:37:15.380Z,99.90
2023-02-22T20:39:45.167Z,99.90
2023-02-22T20:42:16.735Z,99.90
2023-02-22T20:44:45.763Z,99.90
2023-02-22T20:47:13.477Z,99.90
2023-02-22T20:49:42.182Z,99.90
2023-02-22T20:52:10.180Z,99.90
2023-02-22T20:54:38.653Z,99.90
2023-02-22T20:57:08.226Z,99.90
2023-02-22T20:59:45.274Z,99.90
2023-02-22T21:02:16.607Z,99.90
2023-02-22T21:04:46.011Z,99.90
2023-02-22T21:07:15.253Z,99.90
2023-02-22T21:09:45.738Z,99.90
2023-02-22T21:12:20.815Z,99.90
2023-02-22T21:14:49.032Z,99.90
2023-02-22T21:17:22.172Z,99.90
2023-02-22T21:19:50.465Z,99.90
2023-02-22T21:22:18.429Z,99.90
2023-02-22T21:24:50.297Z,99.90
2023-02-22T21:27:20.104Z,99.90
2023-02-22T21:29:48.734Z,99.90
2023-02-22T21:32:17.022Z,99.90
2023-02-22T21:34:45.100Z,99.90
2023-02-22T21:37:19.594Z,99.90
2023-02-22T21:39:49.607Z,99.90
2023-02-22T21:42:18.505Z,99.90
2023-02-22T21:44:45.926Z,99.90
2023-02-22T21:47:13.768Z,99.90
2023-02-22T21:49:42.864Z,99.90
2023-02-22T21:52:10.258Z,99.90
2023-02-22T21:54:39.884Z,99.90
2023-02-22T21:57:07.303Z,99.90
2023-02-22T21:59:34.880Z,99.90
2023-02-22T22:02:02.242Z,99.90
2023-02-22T22:04:31.511Z,99.90
2023-02-22T22:07:01.371Z,99.90
2023-02-22T22:09:32.919Z,99.90
2023-02-22T22:12:05.072Z,99.90
2023-02-22T22:14:34.276Z,99.90
2023-02-22T22:17:01.577Z,99.90
2023-02-22T22:19:30.479Z,99.90
2023-02-22T22:21:59.353Z,99.90
2023-02-22T22:24:29.972Z,99.90
2023-02-22T22:26:57.098Z,99.90
2023-02-22T22:29:26.958Z,99.90
2023-02-22T22:31:57.246Z,99.90
2023-02-22T22:34:24.438Z,99.90
2023-02-22T22:36:52.140Z,99.90
2023-02-22T22:39:21.212Z,99.90
2023-02-22T22:41:48.753Z,99.90
2023-02-22T22:44:22.637Z,99.90
2023-02-22T22:46:53.639Z,99.90
2023-02-22T22:49:23.341Z,99.90
2023-02-22T22:51:50.485Z,99.90
2023-02-22T22:54:17.599Z,99.90
2023-02-22T22:56:45.009Z,99.90
2023-02-22T22:59:13.475Z,99.90
2023-02-22T23:01:44.618Z,99.90
2023-02-22T23:04:17.264Z,99.90
2023-02-22T23:06:47.312Z,99.90
2023-02-22T23:09:18.472Z,99.90
2023-02-22T23:11:53.442Z,99.90
2023-02-22T23:14:32.530Z,99.90
2023-02-22T23:17:03.808Z,99.90
2023-02-22T23:19:36.452Z,99.90
2023-02-22T23:22:07.810Z,99.90
2023-02-22T23:24:36.796Z,99.90
2023-02-22T23:27:07.304Z,99.90
2023-02-22T23:29:38.062Z,99.90
2023-02-22T23:32:09.554Z,99.90
2023-02-22T23:34:41.226Z,99.90
2023-02-22T23:37:10.611Z,99.90
2023-02-22T23:39:38.095Z,99.90
2023-02-22T23:42:05.167Z,99.90
2023-02-22T23:44:32.542Z,99.90
2023-02-22T23:46:59.679Z,99.90
2023-02-22T23:49:33.806Z,99.90
2023-02-22T23:52:00.973Z,99.90
2023-02-22T23:54:36.141Z,99.90
2023-02-22T23:57:05.364Z,99.90
2023-02-22T23:59:33.808Z,99.90
